Mt New Conquest — V7GG4 — position and weather

sailwx.info

Track history (hours):
 
Tides and Currents Weather Stations Pressure Air Temp Water Temp Dewpoint Dewpoint Depression Visibility Wind Speed Wind Dir Waves Ship Positions

Mt New Conquest

Last reported at 2017-Apr-28 13:30 UTC. Time now 2017-Apr-28 14:01 UTC.
Position N 31°48' W 119°43'.

Length 228 m; draft 8.6 m.

Type: Tanker. MMSI: 538002089.

Date/timePositionNaut miles runAvg speedWind from/ knotsBaromVisibWave heightAir tempDewpointWater temp
2017-Apr-28 13:30N 31°48' W 119°43'1 1.7
2017-Apr-28 13:00N 31°49' W 119°42'1 2.0
2017-Apr-28 12:30N 31°49' W 119°41'1 1.8
2017-Apr-28 12:00N 31°50' W 119°41'1 2.1
2017-Apr-28 11:30N 31°50' W 119°40'1 2.0
2017-Apr-28 11:00N 31°51' W 119°39'1 2.1
2017-Apr-28 10:30N 31°52' W 119°38'1 2.0
2017-Apr-28 10:00N 31°52' W 119°37'1 2.5
2017-Apr-28 09:30N 31°53' W 119°35'1 2.4
2017-Apr-28 09:00N 31°53' W 119°34'1 2.7
2017-Apr-28 08:30N 31°54' W 119°33'1 2.6
2017-Apr-28 08:00N 31°55' W 119°32'2 2.8
2017-Apr-28 07:27N 31°56' W 119°30'1 3.1
2017-Apr-28 07:00N 31°57' W 119°29'1 3.1
2017-Apr-28 06:30N 31°58' W 119°28'1 2.7
2017-Apr-28 06:00N 31°59' W 119°27'1 2.3
2017-Apr-28 05:30N 31°59' W 119°28'2 3.3
2017-Apr-28 05:00N 31°60' W 119°30'5 9.0
2017-Apr-28 04:30N 32°03' W 119°34'613.1
2017-Apr-28 04:00N 32°07' W 119°40'612.9
2017-Apr-28 03:30N 32°10' W 119°46'613.0
2017-Apr-28 03:01N 32°14' W 119°52'713.4
2017-Apr-28 02:30N 32°19' W 119°58'713.3
2017-Apr-28 02:00N 32°23' W 120°04'713.5
2017-Apr-28 01:30N 32°27' W 120°10'713.1
2017-Apr-28 00:58N 32°31' W 120°17'1113.7
2017-Apr-28 00:11N 32°38' W 120°27'413.9
2017-Apr-27 23:55N 32°40' W 120°30'613.9
2017-Apr-27 23:30N 32°44' W 120°36'713.6
2017-Apr-27 23:00N 32°48' W 120°42'713.7
2017-Apr-27 22:30N 32°52' W 120°49'713.8
2017-Apr-27 22:00N 32°57' W 120°55'713.3
2017-Apr-27 21:30N 33°01' W 121°01'713.6
2017-Apr-27 21:00N 33°08' W 121°04'713.7
2017-Apr-27 20:31N 33°14' W 121°07'713.8
2017-Apr-27 20:00N 33°20' W 121°09'713.4
2017-Apr-27 19:30N 33°26' W 121°13'713.3
2017-Apr-27 19:00N 33°33' W 121°16'713.1
2017-Apr-27 18:30N 33°39' W 121°19'612.7
2017-Apr-27 18:00N 33°45' W 121°22'612.9
2017-Apr-27 17:30N 33°50' W 121°25'612.9
2017-Apr-27 17:01N 33°56' W 121°28'713.0
2017-Apr-27 16:27N 34°03' W 121°31'612.7
2017-Apr-27 16:01N 34°08' W 121°34'612.9
2017-Apr-27 15:30N 34°14' W 121°37'713.0
2017-Apr-27 15:00N 34°20' W 121°40'1313.3
2017-Apr-27 14:00N 34°33' W 121°46'713.8
2017-Apr-27 13:30N 34°39' W 121°49'713.7
2017-Apr-27 13:00N 34°45' W 121°52'713.7
2017-Apr-27 12:30N 34°52' W 121°55'713.4
2017-Apr-27 12:01N 34°58' W 121°58'713.7
2017-Apr-27 11:30N 35°04' W 122°02'714.1
2017-Apr-27 11:00N 35°11' W 122°05'713.9
2017-Apr-27 10:30N 35°17' W 122°08'713.9
2017-Apr-27 09:58N 35°24' W 122°12'913.8
2017-Apr-27 09:20N 35°32' W 122°16'2813.8
2017-Apr-27 07:17N 35°58' W 122°29'413.4
2017-Apr-27 06:59N 36°02' W 122°31'613.4
2017-Apr-27 06:30N 36°08' W 122°33'713.3
2017-Apr-27 06:00N 36°14' W 122°36'713.6
2017-Apr-27 05:30N 36°21' W 122°38'713.4
2017-Apr-27 05:00N 36°27' W 122°41'713.1
2017-Apr-27 04:29N 36°34' W 122°44'613.1
2017-Apr-27 03:59N 36°40' W 122°46'2213.4
2017-Apr-27 02:20N 37°01' W 122°55'513.9
2017-Apr-27 02:00N 37°05' W 122°56'813.7
2017-Apr-27 01:26N 37°13' W 122°59'613.4
2017-Apr-27 01:00N 37°18' W 123°01'713.5
2017-Apr-27 00:30N 37°25' W 123°04'714.1
2017-Apr-27 00:01N 37°32' W 123°05'612.0
2017-Apr-26 23:30N 37°36' W 122°60'612.6
2017-Apr-26 23:00N 37°40' W 122°53'612.8
2017-Apr-26 22:30N 37°43' W 122°46'611.7
2017-Apr-26 22:01N 37°46' W 122°40'611.8
2017-Apr-26 21:30N 37°48' W 122°33'611.8
2017-Apr-26 21:00N 37°51' W 122°26'510.3
2017-Apr-26 20:30N 37°47' W 122°21'0 0.5
2017-Apr-26 20:00N 37°47' W 122°21'0 0.1
2017-Apr-26 19:30N 37°47' W 122°21'0 0.1
2017-Apr-26 19:00N 37°47' W 122°21'0 0.0
2017-Apr-26 18:30N 37°47' W 122°21'0 0.0
2017-Apr-26 18:00N 37°47' W 122°21'0 0.1
2017-Apr-26 17:30N 37°47' W 122°21'3 6.0
2017-Apr-26 17:00N 37°49' W 122°23'612.2
2017-Apr-26 16:30N 37°55' W 122°25'1 1.1
2017-Apr-26 15:56N 37°55' W 122°25'0 0.0
2017-Apr-26 15:29N 37°55' W 122°25'0 0.0
2017-Apr-26 14:41N 37°55' W 122°25'0 0.0
2017-Apr-26 14:29N 37°55' W 122°25'0 0.0
2017-Apr-26 13:29N 37°55' W 122°25'0 0.0
2017-Apr-26 12:59N 37°55' W 122°25'0 0.0
2017-Apr-26 12:29N 37°55' W 122°25'0 0.0
2017-Apr-26 11:59N 37°55' W 122°25'0 0.0
2017-Apr-26 11:29N 37°55' W 122°25'0 0.0
2017-Apr-26 10:59N 37°55' W 122°25'0 0.0
2017-Apr-26 10:29N 37°55' W 122°25'0 0.0
2017-Apr-26 09:59N 37°55' W 122°25'0 0.0
2017-Apr-26 09:29N 37°55' W 122°25'0 0.0
2017-Apr-26 08:56N 37°55' W 122°25'0 0.0
2017-Apr-26 08:29N 37°55' W 122°25'0 0.0
2017-Apr-26 07:53N 37°55' W 122°25'0 0.0
2017-Apr-26 07:26N 37°55' W 122°25'0 0.0
2017-Apr-26 06:59N 37°55' W 122°25'0 0.0
2017-Apr-26 06:29N 37°55' W 122°25'0 0.0
2017-Apr-26 05:59N 37°55' W 122°25'0 0.0
2017-Apr-26 05:29N 37°55' W 122°25'0 0.0
2017-Apr-26 04:56N 37°55' W 122°25'0 0.0
2017-Apr-26 04:29N 37°55' W 122°25'0 0.0
2017-Apr-26 03:59N 37°55' W 122°25'0 0.0
2017-Apr-26 03:20N 37°55' W 122°25'0 0.0
2017-Apr-26 02:56N 37°55' W 122°25'0 0.0
2017-Apr-26 02:29N 37°55' W 122°25'0 0.0
2017-Apr-26 01:59N 37°55' W 122°25'0 0.0
2017-Apr-26 01:26N 37°55' W 122°25'0 0.0
2017-Apr-26 00:59N 37°55' W 122°25'0 0.0
2017-Apr-26 00:17N 37°55' W 122°25'0 0.0
2017-Apr-25 23:50N 37°55' W 122°25'0 0.0
2017-Apr-25 23:26N 37°55' W 122°25'0 0.0
2017-Apr-25 22:56N 37°55' W 122°25'0 0.0
2017-Apr-25 22:29N 37°55' W 122°25'0 0.0
2017-Apr-25 21:56N 37°55' W 122°25'0 0.0
2017-Apr-25 21:26N 37°55' W 122°25'0 0.0
2017-Apr-25 20:59N 37°55' W 122°25'0 0.0
2017-Apr-25 20:29N 37°55' W 122°25'0 0.0
2017-Apr-25 19:59N 37°55' W 122°25'0 0.0
2017-Apr-25 19:29N 37°55' W 122°25'0 0.0
2017-Apr-25 18:53N 37°55' W 122°25'0 0.0
2017-Apr-25 18:29N 37°55' W 122°25'0 0.0
2017-Apr-25 17:59N 37°55' W 122°25'0 0.0
2017-Apr-25 17:20N 37°55' W 122°25'0 0.0
2017-Apr-25 16:59N 37°55' W 122°25'0 0.0
2017-Apr-25 16:29N 37°55' W 122°25'0 0.0
2017-Apr-25 15:59N 37°55' W 122°25'0 0.0
2017-Apr-25 15:29N 37°55' W 122°25'0 0.0
2017-Apr-25 14:59N 37°55' W 122°25'0 0.0
2017-Apr-25 14:29N 37°55' W 122°25'0 0.0
2017-Apr-25 13:26N 37°55' W 122°25'0 0.0
2017-Apr-25 12:56N 37°55' W 122°25'0 0.0
2017-Apr-25 12:29N 37°55' W 122°25'0 0.0
2017-Apr-25 11:59N 37°55' W 122°25'0 0.0
2017-Apr-25 11:26N 37°55' W 122°25'0 0.0
2017-Apr-25 10:59N 37°55' W 122°25'0 0.0
2017-Apr-25 10:29N 37°55' W 122°25'0 0.0
2017-Apr-25 09:59N 37°55' W 122°25'0 0.0
2017-Apr-25 09:26N 37°55' W 122°25'0 0.0
2017-Apr-25 08:59N 37°55' W 122°25'0 0.0
2017-Apr-25 08:29N 37°55' W 122°25'0 0.0
2017-Apr-25 07:59N 37°55' W 122°25'0 0.0
2017-Apr-25 07:26N 37°55' W 122°25'0 0.0
2017-Apr-25 06:59N 37°55' W 122°25'0 0.0
2017-Apr-25 06:29N 37°55' W 122°25'0 0.0
2017-Apr-25 05:59N 37°55' W 122°25'0 0.0
2017-Apr-25 05:29N 37°55' W 122°25'0 0.0
2017-Apr-25 04:59N 37°55' W 122°25'0 0.0
2017-Apr-25 04:26N 37°55' W 122°25'0 0.0
2017-Apr-25 03:53N 37°55' W 122°25'0 0.0
2017-Apr-25 03:17N 37°55' W 122°25'0 0.0
2017-Apr-25 02:47N 37°55' W 122°25'0 0.0
2017-Apr-25 02:14N 37°55' W 122°25'0 0.0
2017-Apr-25 01:53N 37°55' W 122°25'0 0.0
2017-Apr-25 01:29N 37°55' W 122°25'0 0.0
2017-Apr-25 00:59N 37°55' W 122°25'0 0.0
2017-Apr-25 00:29N 37°55' W 122°25'0 0.0
2017-Apr-24 23:56N 37°55' W 122°25'0 0.0
2017-Apr-24 23:23N 37°55' W 122°25'0 0.0
2017-Apr-24 22:59N 37°55' W 122°25'0 0.0
2017-Apr-24 22:29N 37°55' W 122°25'0 0.0
2017-Apr-24 21:59N 37°55' W 122°25'0 0.0
2017-Apr-24 21:26N 37°55' W 122°25'0 0.0
2017-Apr-24 20:56N 37°55' W 122°25'0 0.0
2017-Apr-24 20:29N 37°55' W 122°25'0 0.0
2017-Apr-24 19:59N 37°55' W 122°25'0 0.0
2017-Apr-24 19:26N 37°55' W 122°25'0 0.0
2017-Apr-24 18:59N 37°55' W 122°25'0 0.0
2017-Apr-24 18:29N 37°55' W 122°25'0 0.0
2017-Apr-24 17:50N 37°55' W 122°25'0 0.0
2017-Apr-24 17:29N 37°55' W 122°25'0 0.0
2017-Apr-24 16:59N 37°55' W 122°25'0 0.0
2017-Apr-24 16:05N 37°55' W 122°25'0 0.0
2017-Apr-24 15:38N 37°55' W 122°25'0 0.0
2017-Apr-24 15:23N 37°55' W 122°25'0 0.2
2017-Apr-24 15:00N 37°55' W 122°25'2 4.2
2017-Apr-24 14:30N 37°53' W 122°25'8 7.6
2017-Apr-24 13:30N 37°48' W 122°32'611.1
2017-Apr-24 13:00N 37°46' W 122°38'4 7.9
2017-Apr-24 12:30N 37°43' W 122°42'3 6.8
2017-Apr-24 12:00N 37°41' W 122°46'4 7.8
2017-Apr-24 11:30N 37°39' W 122°50'4 7.9
2017-Apr-24 11:00N 37°37' W 122°54'4 7.5
2017-Apr-24 10:30N 37°35' W 122°58'4 7.5
2017-Apr-24 10:00N 37°32' W 123°02'3 6.6
2017-Apr-24 09:30N 37°30' W 123°04'3 6.4
2017-Apr-24 09:00N 37°27' W 123°05'2 4.6
2017-Apr-24 08:30N 37°25' W 123°06'3 5.4
2017-Apr-24 08:00N 37°22' W 123°06'4 7.1
2017-Apr-24 07:30N 37°18' W 123°07'2 4.6
2017-Apr-24 07:00N 37°16' W 123°07'1 1.4
2017-Apr-24 06:30N 37°16' W 123°08'1 1.3
2017-Apr-24 06:00N 37°16' W 123°09'1 1.1
2017-Apr-24 05:30N 37°16' W 123°10'1 1.2
2017-Apr-24 04:58N 37°16' W 123°11'1 1.3
2017-Apr-24 04:30N 37°16' W 123°11'1 1.2
2017-Apr-24 03:57N 37°16' W 123°12'1 1.2
2017-Apr-24 03:29N 37°17' W 123°13'1 1.1
2017-Apr-24 03:00N 37°17' W 123°14'1 1.1
2017-Apr-24 02:30N 37°17' W 123°14'0 1.0
2017-Apr-24 02:00N 37°17' W 123°15'0 0.9
2017-Apr-24 01:30N 37°17' W 123°15'0 0.6
2017-Apr-24 00:54N 37°18' W 123°15'1 0.9
2017-Apr-23 23:54N 37°19' W 123°16'1 1.3
2017-Apr-23 23:30N 37°19' W 123°16'2 1.2
2017-Apr-23 21:52N 37°21' W 123°18'1 1.2
2017-Apr-23 21:26N 37°21' W 123°18'1 1.2
2017-Apr-23 20:59N 37°22' W 123°18'1 1.1
2017-Apr-23 20:29N 37°22' W 123°19'1 0.8
2017-Apr-23 19:50N 37°22' W 123°19'0 1.0
2017-Apr-23 19:28N 37°23' W 123°19'1 1.2
2017-Apr-23 19:00N 37°23' W 123°20'9 4.2
2017-Apr-23 16:58N 37°15' W 123°21'510.6
2017-Apr-23 16:28N 37°09' W 123°22'510.7
2017-Apr-23 16:00N 37°05' W 123°23'4 8.4
2017-Apr-23 15:29N 37°00' W 123°23'0 0.6
2017-Apr-23 15:00N 36°60' W 123°24'0 0.5
2017-Apr-23 13:59N 36°60' W 123°24'0 0.5
2017-Apr-23 13:30N 36°60' W 123°24'0 0.6
2017-Apr-23 12:59N 36°60' W 123°25'0 0.5
2017-Apr-23 12:30N 36°60' W 123°25'0 0.8
2017-Apr-23 11:59N 36°60' W 123°26'0 1.0
2017-Apr-23 11:29N 36°60' W 123°26'1 1.0
2017-Apr-23 10:56N 36°60' W 123°27'1 1.3
2017-Apr-23 10:07N 37°00' W 123°28'0 1.4
2017-Apr-23 10:00N 37°00' W 123°28'1 1.5
2017-Apr-23 09:26N 37°01' W 123°29'1 1.4
2017-Apr-23 08:41N 37°01' W 123°30'0 1.3
2017-Apr-23 08:30N 37°01' W 123°30'1 1.3
2017-Apr-23 07:59N 37°02' W 123°31'1 1.2
2017-Apr-23 07:29N 37°02' W 123°32'1 1.2
2017-Apr-23 07:00N 37°03' W 123°32'1 1.1
2017-Apr-23 05:54N 37°04' W 123°33'0 1.0
2017-Apr-23 05:30N 37°04' W 123°33'1 1.0
2017-Apr-23 04:55N 37°05' W 123°33'0 0.7
2017-Apr-23 04:30N 37°05' W 123°34'0 0.6
2017-Apr-23 03:59N 37°05' W 123°34'0 0.8
2017-Apr-23 03:26N 37°06' W 123°34'0 0.9
2017-Apr-23 02:58N 37°06' W 123°34'0 0.9
2017-Apr-23 02:27N 37°06' W 123°33'0 1.0
2017-Apr-23 01:59N 37°07' W 123°33'1 1.0
2017-Apr-23 01:25N 37°07' W 123°33'0 1.0
2017-Apr-23 01:00N 37°08' W 123°33'0 0.9
2017-Apr-23 00:30N 37°08' W 123°33'1 1.0
2017-Apr-23 00:00N 37°09' W 123°33'1 1.0
2017-Apr-22 23:30N 37°09' W 123°32'0 1.0
2017-Apr-22 23:00N 37°10' W 123°32'1 1.1
2017-Apr-22 22:30N 37°10' W 123°32'1 1.1
2017-Apr-22 22:00N 37°11' W 123°32'1 1.1
2017-Apr-22 21:29N 37°11' W 123°32'1 1.0
2017-Apr-22 21:00N 37°12' W 123°31'1 1.0
2017-Apr-22 20:29N 37°12' W 123°31'0 1.0
2017-Apr-22 20:00N 37°13' W 123°31'0 1.0
2017-Apr-22 19:30N 37°13' W 123°31'0 0.9
2017-Apr-22 18:56N 37°14' W 123°32'0 0.8
2017-Apr-22 18:29N 37°14' W 123°32'0 0.6
2017-Apr-22 17:57N 37°14' W 123°32'1 0.4
2017-Apr-22 16:04N 37°15' W 123°32'0 0.0
2017-Apr-22 15:58N 37°15' W 123°32'0 0.2
2017-Apr-22 14:34N 37°15' W 123°33'0 0.1
2017-Apr-22 14:30N 37°15' W 123°33'0 0.1
2017-Apr-22 13:30N 37°15' W 123°33'0 0.1
2017-Apr-22 13:00N 37°15' W 123°33'0 0.4
2017-Apr-22 12:31N 37°15' W 123°32'0 0.5
2017-Apr-22 12:00N 37°15' W 123°32'0 0.5
2017-Apr-22 11:30N 37°15' W 123°32'0 0.7
2017-Apr-22 11:00N 37°16' W 123°32'0 0.8
2017-Apr-22 10:30N 37°16' W 123°31'0 0.8
2017-Apr-22 10:00N 37°16' W 123°31'0 0.7
2017-Apr-22 09:31N 37°16' W 123°31'0 0.7
2017-Apr-22 09:00N 37°17' W 123°31'0 0.6
2017-Apr-22 08:30N 37°17' W 123°30'0 0.6
2017-Apr-22 08:00N 37°17' W 123°30'0 0.7
2017-Apr-22 07:30N 37°17' W 123°30'0 0.6
2017-Apr-22 07:00N 37°18' W 123°30'0 0.6
2017-Apr-22 06:30N 37°18' W 123°29'0 0.8
2017-Apr-22 06:00N 37°18' W 123°29'0 0.7
2017-Apr-22 05:30N 37°19' W 123°29'0 0.6
2017-Apr-22 05:00N 37°19' W 123°29'0 0.6
2017-Apr-22 04:30N 37°19' W 123°28'0 0.8
2017-Apr-22 04:00N 37°19' W 123°28'0 0.8
2017-Apr-22 03:30N 37°20' W 123°28'1 1.2
2017-Apr-22 03:00N 37°20' W 123°27'1 1.1
2017-Apr-22 02:30N 37°20' W 123°27'3 5.7
2017-Apr-22 02:00N 37°18' W 123°25'713.5
2017-Apr-22 01:31N 37°13' W 123°31'713.4
2017-Apr-22 01:00N 37°08' W 123°36'713.5
2017-Apr-22 00:30N 37°03' W 123°43'713.5
2017-Apr-22 00:01N 36°58' W 123°48'714.0
2017-Apr-21 23:30N 36°53' W 123°54'714.1
2017-Apr-21 23:00N 36°47' W 123°60'714.3
2017-Apr-21 22:30N 36°42' W 124°06'714.3
2017-Apr-21 22:01N 36°37' W 124°12'714.2
2017-Apr-21 21:30N 36°31' W 124°17'714.2
2017-Apr-21 21:00N 36°26' W 124°23'714.2
2017-Apr-21 20:30N 36°21' W 124°29'714.4
2017-Apr-21 20:00N 36°16' W 124°35'714.2
2017-Apr-21 19:30N 36°10' W 124°41'714.0
2017-Apr-21 19:00N 36°05' W 124°47'714.0
2017-Apr-21 18:30N 35°60' W 124°53'713.9
2017-Apr-21 18:00N 35°55' W 124°58'713.7
2017-Apr-21 17:30N 35°49' W 125°04'713.8
2017-Apr-21 17:00N 35°44' W 125°10'713.9
2017-Apr-21 16:30N 35°39' W 125°15'814.0
2017-Apr-21 15:56N 35°33' W 125°22'614.0
2017-Apr-21 15:30N 35°29' W 125°27'713.9
2017-Apr-21 15:00N 35°23' W 125°33'2314.1
2017-Apr-21 13:23N 35°07' W 125°52'513.5
2017-Apr-21 13:00N 35°03' W 125°56'611.3
2017-Apr-21 12:30N 34°58' W 125°53'1113.1
2017-Apr-21 11:42N 34°49' W 125°46'1713.3
2017-Apr-21 10:24N 34°34' W 125°35'512.8
2017-Apr-21 10:00N 34°30' W 125°32'712.6
2017-Apr-21 09:28N 34°24' W 125°28'38312.7
2017-Apr-20 03:21N 29°29' W 120°39'513.5
2017-Apr-20 02:59N 29°26' W 120°35'713.7
2017-Apr-20 02:30N 29°22' W 120°29'713.9
2017-Apr-20 02:01N 29°17' W 120°23'713.8
2017-Apr-20 01:30N 29°13' W 120°16'713.8
2017-Apr-20 01:00N 29°09' W 120°10'714.0
2017-Apr-20 00:30N 29°04' W 120°04'713.9
2017-Apr-20 00:00N 29°00' W 119°58'1214.0
2017-Apr-19 23:09N 28°52' W 119°47'6913.9
2017-Apr-19 18:11N 28°08' W 118°47'214.0
2017-Apr-19 18:01N 28°07' W 118°44'  
Track history (hours):
 
Tides and Currents Weather Stations Pressure Air Temp Water Temp Dewpoint Dewpoint Depression Visibility Wind Speed Wind Dir Waves Ship Positions

Mt New Conquest

Last reported at 2017-Apr-28 13:30 UTC. Time now 2017-Apr-28 14:01 UTC.
Position N 31°48' W 119°43'.

Length 228 m; draft 8.6 m.

Type: Tanker. MMSI: 538002089.

Date/timePositionNaut miles runAvg speedWind from/ knotsBaromVisibWave heightAir tempDewpointWater temp
2017-Apr-28 13:30N 31°48' W 119°43'1 1.7
2017-Apr-28 13:00N 31°49' W 119°42'1 2.0
2017-Apr-28 12:30N 31°49' W 119°41'1 1.8
2017-Apr-28 12:00N 31°50' W 119°41'1 2.1
2017-Apr-28 11:30N 31°50' W 119°40'1 2.0
2017-Apr-28 11:00N 31°51' W 119°39'1 2.1
2017-Apr-28 10:30N 31°52' W 119°38'1 2.0
2017-Apr-28 10:00N 31°52' W 119°37'1 2.5
2017-Apr-28 09:30N 31°53' W 119°35'1 2.4
2017-Apr-28 09:00N 31°53' W 119°34'1 2.7
2017-Apr-28 08:30N 31°54' W 119°33'1 2.6
2017-Apr-28 08:00N 31°55' W 119°32'2 2.8
2017-Apr-28 07:27N 31°56' W 119°30'1 3.1
2017-Apr-28 07:00N 31°57' W 119°29'1 3.1
2017-Apr-28 06:30N 31°58' W 119°28'1 2.7
2017-Apr-28 06:00N 31°59' W 119°27'1 2.3
2017-Apr-28 05:30N 31°59' W 119°28'2 3.3
2017-Apr-28 05:00N 31°60' W 119°30'5 9.0
2017-Apr-28 04:30N 32°03' W 119°34'613.1
2017-Apr-28 04:00N 32°07' W 119°40'612.9
2017-Apr-28 03:30N 32°10' W 119°46'613.0
2017-Apr-28 03:01N 32°14' W 119°52'713.4
2017-Apr-28 02:30N 32°19' W 119°58'713.3
2017-Apr-28 02:00N 32°23' W 120°04'713.5
2017-Apr-28 01:30N 32°27' W 120°10'713.1
2017-Apr-28 00:58N 32°31' W 120°17'1113.7
2017-Apr-28 00:11N 32°38' W 120°27'413.9
2017-Apr-27 23:55N 32°40' W 120°30'613.9
2017-Apr-27 23:30N 32°44' W 120°36'713.6
2017-Apr-27 23:00N 32°48' W 120°42'713.7
2017-Apr-27 22:30N 32°52' W 120°49'713.8
2017-Apr-27 22:00N 32°57' W 120°55'713.3
2017-Apr-27 21:30N 33°01' W 121°01'713.6
2017-Apr-27 21:00N 33°08' W 121°04'713.7
2017-Apr-27 20:31N 33°14' W 121°07'713.8
2017-Apr-27 20:00N 33°20' W 121°09'713.4
2017-Apr-27 19:30N 33°26' W 121°13'713.3
2017-Apr-27 19:00N 33°33' W 121°16'713.1
2017-Apr-27 18:30N 33°39' W 121°19'612.7
2017-Apr-27 18:00N 33°45' W 121°22'612.9
2017-Apr-27 17:30N 33°50' W 121°25'612.9
2017-Apr-27 17:01N 33°56' W 121°28'713.0
2017-Apr-27 16:27N 34°03' W 121°31'612.7
2017-Apr-27 16:01N 34°08' W 121°34'612.9
2017-Apr-27 15:30N 34°14' W 121°37'713.0
2017-Apr-27 15:00N 34°20' W 121°40'1313.3
2017-Apr-27 14:00N 34°33' W 121°46'713.8
2017-Apr-27 13:30N 34°39' W 121°49'713.7
2017-Apr-27 13:00N 34°45' W 121°52'713.7
2017-Apr-27 12:30N 34°52' W 121°55'713.4
2017-Apr-27 12:01N 34°58' W 121°58'713.7
2017-Apr-27 11:30N 35°04' W 122°02'714.1
2017-Apr-27 11:00N 35°11' W 122°05'713.9
2017-Apr-27 10:30N 35°17' W 122°08'713.9
2017-Apr-27 09:58N 35°24' W 122°12'913.8
2017-Apr-27 09:20N 35°32' W 122°16'2813.8
2017-Apr-27 07:17N 35°58' W 122°29'413.4
2017-Apr-27 06:59N 36°02' W 122°31'613.4
2017-Apr-27 06:30N 36°08' W 122°33'713.3
2017-Apr-27 06:00N 36°14' W 122°36'713.6
2017-Apr-27 05:30N 36°21' W 122°38'713.4
2017-Apr-27 05:00N 36°27' W 122°41'713.1
2017-Apr-27 04:29N 36°34' W 122°44'613.1
2017-Apr-27 03:59N 36°40' W 122°46'2213.4
2017-Apr-27 02:20N 37°01' W 122°55'513.9
2017-Apr-27 02:00N 37°05' W 122°56'813.7
2017-Apr-27 01:26N 37°13' W 122°59'613.4
2017-Apr-27 01:00N 37°18' W 123°01'713.5
2017-Apr-27 00:30N 37°25' W 123°04'714.1
2017-Apr-27 00:01N 37°32' W 123°05'612.0
2017-Apr-26 23:30N 37°36' W 122°60'612.6
2017-Apr-26 23:00N 37°40' W 122°53'612.8
2017-Apr-26 22:30N 37°43' W 122°46'611.7
2017-Apr-26 22:01N 37°46' W 122°40'611.8
2017-Apr-26 21:30N 37°48' W 122°33'611.8
2017-Apr-26 21:00N 37°51' W 122°26'510.3
2017-Apr-26 20:30N 37°47' W 122°21'0 0.5
2017-Apr-26 20:00N 37°47' W 122°21'0 0.1
2017-Apr-26 19:30N 37°47' W 122°21'0 0.1
2017-Apr-26 19:00N 37°47' W 122°21'0 0.0
2017-Apr-26 18:30N 37°47' W 122°21'0 0.0
2017-Apr-26 18:00N 37°47' W 122°21'0 0.1
2017-Apr-26 17:30N 37°47' W 122°21'3 6.0
2017-Apr-26 17:00N 37°49' W 122°23'612.2
2017-Apr-26 16:30N 37°55' W 122°25'1 1.1
2017-Apr-26 15:56N 37°55' W 122°25'0 0.0
2017-Apr-26 15:29N 37°55' W 122°25'0 0.0
2017-Apr-26 14:41N 37°55' W 122°25'0 0.0
2017-Apr-26 14:29N 37°55' W 122°25'0 0.0
2017-Apr-26 13:29N 37°55' W 122°25'0 0.0
2017-Apr-26 12:59N 37°55' W 122°25'0 0.0
2017-Apr-26 12:29N 37°55' W 122°25'0 0.0
2017-Apr-26 11:59N 37°55' W 122°25'0 0.0
2017-Apr-26 11:29N 37°55' W 122°25'0 0.0
2017-Apr-26 10:59N 37°55' W 122°25'0 0.0
2017-Apr-26 10:29N 37°55' W 122°25'0 0.0
2017-Apr-26 09:59N 37°55' W 122°25'0 0.0
2017-Apr-26 09:29N 37°55' W 122°25'0 0.0
2017-Apr-26 08:56N 37°55' W 122°25'0 0.0
2017-Apr-26 08:29N 37°55' W 122°25'0 0.0
2017-Apr-26 07:53N 37°55' W 122°25'0 0.0
2017-Apr-26 07:26N 37°55' W 122°25'0 0.0
2017-Apr-26 06:59N 37°55' W 122°25'0 0.0
2017-Apr-26 06:29N 37°55' W 122°25'0 0.0
2017-Apr-26 05:59N 37°55' W 122°25'0 0.0
2017-Apr-26 05:29N 37°55' W 122°25'0 0.0
2017-Apr-26 04:56N 37°55' W 122°25'0 0.0
2017-Apr-26 04:29N 37°55' W 122°25'0 0.0
2017-Apr-26 03:59N 37°55' W 122°25'0 0.0
2017-Apr-26 03:20N 37°55' W 122°25'0 0.0
2017-Apr-26 02:56N 37°55' W 122°25'0 0.0
2017-Apr-26 02:29N 37°55' W 122°25'0 0.0
2017-Apr-26 01:59N 37°55' W 122°25'0 0.0
2017-Apr-26 01:26N 37°55' W 122°25'0 0.0
2017-Apr-26 00:59N 37°55' W 122°25'0 0.0
2017-Apr-26 00:17N 37°55' W 122°25'0 0.0
2017-Apr-25 23:50N 37°55' W 122°25'0 0.0
2017-Apr-25 23:26N 37°55' W 122°25'0 0.0
2017-Apr-25 22:56N 37°55' W 122°25'0 0.0
2017-Apr-25 22:29N 37°55' W 122°25'0 0.0
2017-Apr-25 21:56N 37°55' W 122°25'0 0.0
2017-Apr-25 21:26N 37°55' W 122°25'0 0.0
2017-Apr-25 20:59N 37°55' W 122°25'0 0.0
2017-Apr-25 20:29N 37°55' W 122°25'0 0.0
2017-Apr-25 19:59N 37°55' W 122°25'0 0.0
2017-Apr-25 19:29N 37°55' W 122°25'0 0.0
2017-Apr-25 18:53N 37°55' W 122°25'0 0.0
2017-Apr-25 18:29N 37°55' W 122°25'0 0.0
2017-Apr-25 17:59N 37°55' W 122°25'0 0.0
2017-Apr-25 17:20N 37°55' W 122°25'0 0.0
2017-Apr-25 16:59N 37°55' W 122°25'0 0.0
2017-Apr-25 16:29N 37°55' W 122°25'0 0.0
2017-Apr-25 15:59N 37°55' W 122°25'0 0.0
2017-Apr-25 15:29N 37°55' W 122°25'0 0.0
2017-Apr-25 14:59N 37°55' W 122°25'0 0.0
2017-Apr-25 14:29N 37°55' W 122°25'0 0.0
2017-Apr-25 13:26N 37°55' W 122°25'0 0.0
2017-Apr-25 12:56N 37°55' W 122°25'0 0.0
2017-Apr-25 12:29N 37°55' W 122°25'0 0.0
2017-Apr-25 11:59N 37°55' W 122°25'0 0.0
2017-Apr-25 11:26N 37°55' W 122°25'0 0.0
2017-Apr-25 10:59N 37°55' W 122°25'0 0.0
2017-Apr-25 10:29N 37°55' W 122°25'0 0.0
2017-Apr-25 09:59N 37°55' W 122°25'0 0.0
2017-Apr-25 09:26N 37°55' W 122°25'0 0.0
2017-Apr-25 08:59N 37°55' W 122°25'0 0.0
2017-Apr-25 08:29N 37°55' W 122°25'0 0.0
2017-Apr-25 07:59N 37°55' W 122°25'0 0.0
2017-Apr-25 07:26N 37°55' W 122°25'0 0.0
2017-Apr-25 06:59N 37°55' W 122°25'0 0.0
2017-Apr-25 06:29N 37°55' W 122°25'0 0.0
2017-Apr-25 05:59N 37°55' W 122°25'0 0.0
2017-Apr-25 05:29N 37°55' W 122°25'0 0.0
2017-Apr-25 04:59N 37°55' W 122°25'0 0.0
2017-Apr-25 04:26N 37°55' W 122°25'0 0.0
2017-Apr-25 03:53N 37°55' W 122°25'0 0.0
2017-Apr-25 03:17N 37°55' W 122°25'0 0.0
2017-Apr-25 02:47N 37°55' W 122°25'0 0.0
2017-Apr-25 02:14N 37°55' W 122°25'0 0.0
2017-Apr-25 01:53N 37°55' W 122°25'0 0.0
2017-Apr-25 01:29N 37°55' W 122°25'0 0.0
2017-Apr-25 00:59N 37°55' W 122°25'0 0.0
2017-Apr-25 00:29N 37°55' W 122°25'0 0.0
2017-Apr-24 23:56N 37°55' W 122°25'0 0.0
2017-Apr-24 23:23N 37°55' W 122°25'0 0.0
2017-Apr-24 22:59N 37°55' W 122°25'0 0.0
2017-Apr-24 22:29N 37°55' W 122°25'0 0.0
2017-Apr-24 21:59N 37°55' W 122°25'0 0.0
2017-Apr-24 21:26N 37°55' W 122°25'0 0.0
2017-Apr-24 20:56N 37°55' W 122°25'0 0.0
2017-Apr-24 20:29N 37°55' W 122°25'0 0.0
2017-Apr-24 19:59N 37°55' W 122°25'0 0.0
2017-Apr-24 19:26N 37°55' W 122°25'0 0.0
2017-Apr-24 18:59N 37°55' W 122°25'0 0.0
2017-Apr-24 18:29N 37°55' W 122°25'0 0.0
2017-Apr-24 17:50N 37°55' W 122°25'0 0.0
2017-Apr-24 17:29N 37°55' W 122°25'0 0.0
2017-Apr-24 16:59N 37°55' W 122°25'0 0.0
2017-Apr-24 16:05N 37°55' W 122°25'0 0.0
2017-Apr-24 15:38N 37°55' W 122°25'0 0.0
2017-Apr-24 15:23N 37°55' W 122°25'0 0.2
2017-Apr-24 15:00N 37°55' W 122°25'2 4.2
2017-Apr-24 14:30N 37°53' W 122°25'8 7.6
2017-Apr-24 13:30N 37°48' W 122°32'611.1
2017-Apr-24 13:00N 37°46' W 122°38'4 7.9
2017-Apr-24 12:30N 37°43' W 122°42'3 6.8
2017-Apr-24 12:00N 37°41' W 122°46'4 7.8
2017-Apr-24 11:30N 37°39' W 122°50'4 7.9
2017-Apr-24 11:00N 37°37' W 122°54'4 7.5
2017-Apr-24 10:30N 37°35' W 122°58'4 7.5
2017-Apr-24 10:00N 37°32' W 123°02'3 6.6
2017-Apr-24 09:30N 37°30' W 123°04'3 6.4
2017-Apr-24 09:00N 37°27' W 123°05'2 4.6
2017-Apr-24 08:30N 37°25' W 123°06'3 5.4
2017-Apr-24 08:00N 37°22' W 123°06'4 7.1
2017-Apr-24 07:30N 37°18' W 123°07'2 4.6
2017-Apr-24 07:00N 37°16' W 123°07'1 1.4
2017-Apr-24 06:30N 37°16' W 123°08'1 1.3
2017-Apr-24 06:00N 37°16' W 123°09'1 1.1
2017-Apr-24 05:30N 37°16' W 123°10'1 1.2
2017-Apr-24 04:58N 37°16' W 123°11'1 1.3
2017-Apr-24 04:30N 37°16' W 123°11'1 1.2
2017-Apr-24 03:57N 37°16' W 123°12'1 1.2
2017-Apr-24 03:29N 37°17' W 123°13'1 1.1
2017-Apr-24 03:00N 37°17' W 123°14'1 1.1
2017-Apr-24 02:30N 37°17' W 123°14'0 1.0
2017-Apr-24 02:00N 37°17' W 123°15'0 0.9
2017-Apr-24 01:30N 37°17' W 123°15'0 0.6
2017-Apr-24 00:54N 37°18' W 123°15'1 0.9
2017-Apr-23 23:54N 37°19' W 123°16'1 1.3
2017-Apr-23 23:30N 37°19' W 123°16'2 1.2
2017-Apr-23 21:52N 37°21' W 123°18'1 1.2
2017-Apr-23 21:26N 37°21' W 123°18'1 1.2
2017-Apr-23 20:59N 37°22' W 123°18'1 1.1
2017-Apr-23 20:29N 37°22' W 123°19'1 0.8
2017-Apr-23 19:50N 37°22' W 123°19'0 1.0
2017-Apr-23 19:28N 37°23' W 123°19'1 1.2
2017-Apr-23 19:00N 37°23' W 123°20'9 4.2
2017-Apr-23 16:58N 37°15' W 123°21'510.6
2017-Apr-23 16:28N 37°09' W 123°22'510.7
2017-Apr-23 16:00N 37°05' W 123°23'4 8.4
2017-Apr-23 15:29N 37°00' W 123°23'0 0.6
2017-Apr-23 15:00N 36°60' W 123°24'0 0.5
2017-Apr-23 13:59N 36°60' W 123°24'0 0.5
2017-Apr-23 13:30N 36°60' W 123°24'0 0.6
2017-Apr-23 12:59N 36°60' W 123°25'0 0.5
2017-Apr-23 12:30N 36°60' W 123°25'0 0.8
2017-Apr-23 11:59N 36°60' W 123°26'0 1.0
2017-Apr-23 11:29N 36°60' W 123°26'1 1.0
2017-Apr-23 10:56N 36°60' W 123°27'1 1.3
2017-Apr-23 10:07N 37°00' W 123°28'0 1.4
2017-Apr-23 10:00N 37°00' W 123°28'1 1.5
2017-Apr-23 09:26N 37°01' W 123°29'1 1.4
2017-Apr-23 08:41N 37°01' W 123°30'0 1.3
2017-Apr-23 08:30N 37°01' W 123°30'1 1.3
2017-Apr-23 07:59N 37°02' W 123°31'1 1.2
2017-Apr-23 07:29N 37°02' W 123°32'1 1.2
2017-Apr-23 07:00N 37°03' W 123°32'1 1.1
2017-Apr-23 05:54N 37°04' W 123°33'0 1.0
2017-Apr-23 05:30N 37°04' W 123°33'1 1.0
2017-Apr-23 04:55N 37°05' W 123°33'0 0.7
2017-Apr-23 04:30N 37°05' W 123°34'0 0.6
2017-Apr-23 03:59N 37°05' W 123°34'0 0.8
2017-Apr-23 03:26N 37°06' W 123°34'0 0.9
2017-Apr-23 02:58N 37°06' W 123°34'0 0.9
2017-Apr-23 02:27N 37°06' W 123°33'0 1.0
2017-Apr-23 01:59N 37°07' W 123°33'1 1.0
2017-Apr-23 01:25N 37°07' W 123°33'0 1.0
2017-Apr-23 01:00N 37°08' W 123°33'0 0.9
2017-Apr-23 00:30N 37°08' W 123°33'1 1.0
2017-Apr-23 00:00N 37°09' W 123°33'1 1.0
2017-Apr-22 23:30N 37°09' W 123°32'0 1.0
2017-Apr-22 23:00N 37°10' W 123°32'1 1.1
2017-Apr-22 22:30N 37°10' W 123°32'1 1.1
2017-Apr-22 22:00N 37°11' W 123°32'1 1.1
2017-Apr-22 21:29N 37°11' W 123°32'1 1.0
2017-Apr-22 21:00N 37°12' W 123°31'1 1.0
2017-Apr-22 20:29N 37°12' W 123°31'0 1.0
2017-Apr-22 20:00N 37°13' W 123°31'0 1.0
2017-Apr-22 19:30N 37°13' W 123°31'0 0.9
2017-Apr-22 18:56N 37°14' W 123°32'0 0.8
2017-Apr-22 18:29N 37°14' W 123°32'0 0.6
2017-Apr-22 17:57N 37°14' W 123°32'1 0.4
2017-Apr-22 16:04N 37°15' W 123°32'0 0.0
2017-Apr-22 15:58N 37°15' W 123°32'0 0.2
2017-Apr-22 14:34N 37°15' W 123°33'0 0.1
2017-Apr-22 14:30N 37°15' W 123°33'0 0.1
2017-Apr-22 13:30N 37°15' W 123°33'0 0.1
2017-Apr-22 13:00N 37°15' W 123°33'0 0.4
2017-Apr-22 12:31N 37°15' W 123°32'0 0.5
2017-Apr-22 12:00N 37°15' W 123°32'0 0.5
2017-Apr-22 11:30N 37°15' W 123°32'0 0.7
2017-Apr-22 11:00N 37°16' W 123°32'0 0.8
2017-Apr-22 10:30N 37°16' W 123°31'0 0.8
2017-Apr-22 10:00N 37°16' W 123°31'0 0.7
2017-Apr-22 09:31N 37°16' W 123°31'0 0.7
2017-Apr-22 09:00N 37°17' W 123°31'0 0.6
2017-Apr-22 08:30N 37°17' W 123°30'0 0.6
2017-Apr-22 08:00N 37°17' W 123°30'0 0.7
2017-Apr-22 07:30N 37°17' W 123°30'0 0.6
2017-Apr-22 07:00N 37°18' W 123°30'0 0.6
2017-Apr-22 06:30N 37°18' W 123°29'0 0.8
2017-Apr-22 06:00N 37°18' W 123°29'0 0.7
2017-Apr-22 05:30N 37°19' W 123°29'0 0.6
2017-Apr-22 05:00N 37°19' W 123°29'0 0.6
2017-Apr-22 04:30N 37°19' W 123°28'0 0.8
2017-Apr-22 04:00N 37°19' W 123°28'0 0.8
2017-Apr-22 03:30N 37°20' W 123°28'1 1.2
2017-Apr-22 03:00N 37°20' W 123°27'1 1.1
2017-Apr-22 02:30N 37°20' W 123°27'3 5.7
2017-Apr-22 02:00N 37°18' W 123°25'713.5
2017-Apr-22 01:31N 37°13' W 123°31'713.4
2017-Apr-22 01:00N 37°08' W 123°36'713.5
2017-Apr-22 00:30N 37°03' W 123°43'713.5
2017-Apr-22 00:01N 36°58' W 123°48'714.0
2017-Apr-21 23:30N 36°53' W 123°54'714.1
2017-Apr-21 23:00N 36°47' W 123°60'714.3
2017-Apr-21 22:30N 36°42' W 124°06'714.3
2017-Apr-21 22:01N 36°37' W 124°12'714.2
2017-Apr-21 21:30N 36°31' W 124°17'714.2
2017-Apr-21 21:00N 36°26' W 124°23'714.2
2017-Apr-21 20:30N 36°21' W 124°29'714.4
2017-Apr-21 20:00N 36°16' W 124°35'714.2
2017-Apr-21 19:30N 36°10' W 124°41'714.0
2017-Apr-21 19:00N 36°05' W 124°47'714.0
2017-Apr-21 18:30N 35°60' W 124°53'713.9
2017-Apr-21 18:00N 35°55' W 124°58'713.7
2017-Apr-21 17:30N 35°49' W 125°04'713.8
2017-Apr-21 17:00N 35°44' W 125°10'713.9
2017-Apr-21 16:30N 35°39' W 125°15'814.0
2017-Apr-21 15:56N 35°33' W 125°22'614.0
2017-Apr-21 15:30N 35°29' W 125°27'713.9
2017-Apr-21 15:00N 35°23' W 125°33'2314.1
2017-Apr-21 13:23N 35°07' W 125°52'513.5
2017-Apr-21 13:00N 35°03' W 125°56'611.3
2017-Apr-21 12:30N 34°58' W 125°53'1113.1
2017-Apr-21 11:42N 34°49' W 125°46'1713.3
2017-Apr-21 10:24N 34°34' W 125°35'512.8
2017-Apr-21 10:00N 34°30' W 125°32'712.6
2017-Apr-21 09:28N 34°24' W 125°28'38312.7
2017-Apr-20 03:21N 29°29' W 120°39'513.5
2017-Apr-20 02:59N 29°26' W 120°35'713.7
2017-Apr-20 02:30N 29°22' W 120°29'713.9
2017-Apr-20 02:01N 29°17' W 120°23'713.8
2017-Apr-20 01:30N 29°13' W 120°16'713.8
2017-Apr-20 01:00N 29°09' W 120°10'714.0
2017-Apr-20 00:30N 29°04' W 120°04'713.9
2017-Apr-20 00:00N 29°00' W 119°58'1214.0
2017-Apr-19 23:09N 28°52' W 119°47'6913.9
2017-Apr-19 18:11N 28°08' W 118°47'214.0
2017-Apr-19 18:01N 28°07' W 118°44'  

Dump ship's entire track history